Dati Storici

Data ora Umidita' aria (%) Temperatura aria (°C) Rad globale (W/m²) Gonioanemometro (°) Tacoanemometro (m/s) Pioggia (mm)
21-10-2012 22:40 94.8 % 13.612 1.366 230.025 0.404 0
21-10-2012 22:30 95 % 13.877 1.469 223.762 0.213 0
21-10-2012 22:20 94.9 % 13.894 1.391 254.841 0.429 0
21-10-2012 22:10 94.9 % 13.989 1.378 245.651 0.329 0
21-10-2012 22:00 95 % 14.086 1.43 262.153 0.702 0
21-10-2012 21:50 94.7 % 13.984 1.622 34.206 0.212 0
21-10-2012 21:40 94.4 % 14 1.212 279.231 0.27 0
21-10-2012 21:30 94.4 % 14.182 1.487 254.276 0.476 0
21-10-2012 21:20 94 % 14.172 0.897 252.472 0.757 0
21-10-2012 21:10 93.2 % 14.058 0.82 238.372 0.512 0
21-10-2012 21:00 92.7 % 14.134 0.82 254.666 0.314 0
21-10-2012 20:50 92.3 % 14.273 1.038 229.084 0.202 0
21-10-2012 20:40 91 % 14.241 0.833 229.202 0.48 0
21-10-2012 20:30 90.4 % 14.383 1.089 258.822 0.239 0
21-10-2012 20:20 90.6 % 14.69 1.692 264.076 0.197 0
21-10-2012 20:10 90 % 14.627 1.59 214.425 0.446 0
21-10-2012 20:00 90.5 % 14.882 1.756 217.29 0.712 0
21-10-2012 19:50 90.4 % 14.818 1.654 222.397 0.273 0
21-10-2012 19:40 90.4 % 14.85 1.808 218.209 0.261 0
21-10-2012 19:30 88.4 % 14.334 1.539 235.949 -0.015 0

I dati sono presentati in modo automatico a scopo informativo. In seguito a verifica i dati possono subire modifiche o essere invalidati e non riportati negli archivi definitivi.